Time;durP1;ratioP1;P1;durP2;ratioP2;P2;SDS_P1;SDS_P2;PMS_P1;PMS_P2;Temp;Humidity;BMP_temperature;BMP_pressure;BME280_temperature;BME280_humidity;BME280_pressure;Samples;Min_cycle;Max_cycle;Signal;HPM_P1;HPM_P2
2023/07/31 05:10:14;;;;;;;6.53;2.20;;;;;;;19.54;61.92;100342.06;5244559;23;20268;-68
2023/07/31 05:13:04;;;;;;;5.13;2.37;;;;;;;19.47;62.12;100352.00;4886022;29;20603;-67
2023/07/31 05:15:35;;;;;;;8.50;2.50;;;;;;;19.48;62.18;100348.31;4887935;29;20218;-65
2023/07/31 05:18:10;;;;;;;6.73;2.00;;;;;;;19.50;62.07;100341.69;4887249;29;20813;-68
2023/07/31 05:20:41;;;;;;;8.47;2.53;;;;;;;19.54;61.95;100350.16;4868135;29;20275;-68
2023/07/31 05:23:26;;;;;;;10.27;3.07;;;;;;;19.53;62.24;100345.81;4865362;29;20228;-65
2023/07/31 05:26:04;;;;;;;5.93;2.33;;;;;;;19.54;62.07;100347.47;4867752;29;20218;-64
2023/07/31 05:28:35;;;;;;;11.77;2.70;;;;;;;19.54;62.70;100347.47;4865059;29;20213;-62
2023/07/31 05:31:06;;;;;;;8.03;2.60;;;;;;;19.52;62.48;100349.56;4869586;29;20214;-64
2023/07/31 05:33:46;;;;;;;10.57;2.77;;;;;;;19.59;62.46;100346.84;4869045;29;20222;-64
2023/07/31 05:36:14;;;;;;;8.77;2.40;;;;;;;19.62;62.13;100339.16;4869361;29;20278;-62
2023/07/31 05:38:44;;;;;;;7.30;2.40;;;;;;;19.61;62.83;100340.22;4867598;29;20210;-64
2023/07/31 05:41:14;;;;;;;7.37;2.50;;;;;;;19.71;62.09;100337.91;4868808;29;20218;-63
2023/07/31 05:43:46;;;;;;;7.33;2.57;;;;;;;19.68;62.48;100343.72;4869378;29;20235;-63
2023/07/31 05:46:15;;;;;;;9.70;2.37;;;;;;;19.74;62.59;100339.34;4866695;29;20221;-64
2023/07/31 05:48:43;;;;;;;6.67;2.50;;;;;;;19.87;62.01;100337.47;4869275;29;20674;-64
2023/07/31 05:51:14;;;;;;;8.37;2.60;;;;;;;19.86;61.71;100333.13;4868523;29;20241;-63
2023/07/31 05:53:48;;;;;;;8.67;2.50;;;;;;;19.95;61.31;100328.34;4868377;29;21111;-63
2023/07/31 05:56:19;;;;;;;6.07;2.10;;;;;;;19.87;61.72;100332.09;4868776;29;20237;-67
2023/07/31 05:58:53;;;;;;;8.43;2.67;;;;;;;19.87;61.77;100318.63;4867681;29;20233;-63
2023/07/31 06:01:38;;;;;;;5.53;2.30;;;;;;;19.96;61.36;100318.41;4868125;29;20577;-63
2023/07/31 06:04:11;;;;;;;10.20;2.33;;;;;;;20.01;60.91;100321.25;4866425;29;20206;-63
2023/07/31 06:06:59;;;;;;;7.13;2.53;;;;;;;20.01;61.06;100315.88;4861588;29;21905;-63
2023/07/31 06:09:27;;;;;;;6.27;2.80;;;;;;;19.99;61.84;100313.41;4869348;29;20225;-62
2023/07/31 06:11:59;;;;;;;6.67;2.30;;;;;;;20.01;61.55;100323.97;4868582;29;20312;-63
2023/07/31 06:14:29;;;;;;;9.60;2.70;;;;;;;20.03;61.64;100314.63;4866818;29;20608;-63
2023/07/31 06:17:00;;;;;;;7.00;2.40;;;;;;;20.13;62.39;100308.81;4864460;29;20222;-59
2023/07/31 06:19:28;;;;;;;10.67;3.00;;;;;;;20.32;62.11;100309.75;4865255;29;20234;-63
2023/07/31 06:21:56;;;;;;;11.40;3.00;;;;;;;20.36;61.68;100316.38;4864201;29;20297;-60
2023/07/31 06:24:24;;;;;;;10.83;3.13;;;;;;;20.51;60.50;100306.94;4866717;29;20217;-59
2023/07/31 06:26:52;;;;;;;8.27;2.80;;;;;;;20.53;60.55;100307.56;4867320;29;20325;-60
2023/07/31 06:29:21;;;;;;;9.53;2.70;;;;;;;20.56;60.81;100304.44;4867275;29;20214;-60
2023/07/31 06:31:49;;;;;;;10.37;2.80;;;;;;;20.62;60.63;100303.56;4868169;29;20337;-61
2023/07/31 06:34:28;;;;;;;8.83;2.80;;;;;;;20.67;59.71;100306.44;4869235;29;20238;-63
2023/07/31 06:37:01;;;;;;;9.57;2.90;;;;;;;20.67;59.81;100306.44;4868657;29;20214;-63
2023/07/31 06:39:31;;;;;;;6.07;2.43;;;;;;;20.62;59.84;100311.66;4866329;29;20277;-62
2023/07/31 06:42:00;;;;;;;6.57;2.53;;;;;;;20.63;59.92;100316.00;4868798;29;20214;-60
2023/07/31 06:44:29;;;;;;;7.27;2.50;;;;;;;20.65;59.60;100323.88;4868601;29;20679;-63
2023/07/31 06:46:57;;;;;;;6.60;2.50;;;;;;;20.67;59.92;100316.38;4868705;29;20328;-62
2023/07/31 06:49:25;;;;;;;8.60;2.60;;;;;;;20.78;60.00;100320.25;4866846;29;20216;-61
2023/07/31 06:51:53;;;;;;;7.07;2.47;;;;;;;20.84;58.78;100314.81;4867339;29;20226;-59
2023/07/31 06:54:21;;;;;;;8.93;2.20;;;;;;;20.79;59.41;100321.91;4866891;29;20298;-61
2023/07/31 06:56:49;;;;;;;7.83;2.87;;;;;;;20.85;59.39;100321.84;4867736;29;20656;-60
2023/07/31 06:59:16;;;;;;;6.80;2.43;;;;;;;20.91;58.90;100318.28;4868230;29;21126;-60
2023/07/31 07:01:46;;;;;;;7.67;2.60;;;;;;;20.78;59.21;100313.00;4866638;29;20214;-58
2023/07/31 07:04:15;;;;;;;5.60;2.33;;;;;;;20.86;59.14;100320.81;4867875;29;20274;-64
2023/07/31 07:06:43;;;;;;;5.47;2.40;;;;;;;20.74;59.45;100322.56;4867715;29;20209;-60
2023/07/31 07:09:11;;;;;;;7.47;2.57;;;;;;;20.83;59.15;100315.88;4866178;29;20775;-63
2023/07/31 07:11:39;;;;;;;13.47;2.83;;;;;;;20.87;58.96;100317.06;4869078;29;20282;-62
2023/07/31 07:14:07;;;;;;;9.17;2.67;;;;;;;21.00;58.30;100316.97;4867905;29;20245;-60
2023/07/31 07:16:35;;;;;;;8.43;3.50;;;;;;;21.07;58.54;100316.91;4868008;29;20632;-62
2023/07/31 07:19:04;;;;;;;5.83;2.67;;;;;;;21.13;58.57;100316.03;4867275;29;20276;-62
2023/07/31 07:21:32;;;;;;;7.23;2.23;;;;;;;21.30;57.70;100314.44;4869025;29;20222;-64
2023/07/31 07:24:00;;;;;;;7.63;2.63;;;;;;;21.30;57.73;100309.06;4867684;29;20241;-60
2023/07/31 07:26:28;;;;;;;7.80;2.80;;;;;;;21.23;58.45;100304.78;4865903;29;20213;-59
2023/07/31 07:28:57;;;;;;;11.43;2.83;;;;;;;21.36;57.91;100301.97;4866902;29;20336;-61
2023/07/31 07:31:27;;;;;;;9.13;2.50;;;;;;;21.43;58.29;100299.19;4867511;29;20241;-60
2023/07/31 07:33:55;;;;;;;6.80;2.87;;;;;;;21.48;58.35;100296.66;4868229;29;20218;-59
2023/07/31 07:36:24;;;;;;;6.70;2.47;;;;;;;21.60;58.39;100301.09;4869439;29;20234;-62
2023/07/31 07:38:52;;;;;;;6.90;3.00;;;;;;;21.65;58.10;100303.09;4866362;29;20283;-63
2023/07/31 07:41:20;;;;;;;9.80;3.30;;;;;;;21.77;57.72;100301.31;4867738;29;20222;-61
2023/07/31 07:43:48;;;;;;;6.83;2.77;;;;;;;21.91;57.02;100297.41;4865378;29;20225;-61
2023/07/31 07:46:16;;;;;;;7.73;2.90;;;;;;;21.98;56.73;100292.78;4868102;29;20305;-62
2023/07/31 07:48:44;;;;;;;11.10;2.90;;;;;;;21.97;56.86;100295.69;4867289;29;20839;-59
2023/07/31 07:51:11;;;;;;;6.53;2.53;;;;;;;21.91;57.03;100285.78;4865676;29;20214;-61
2023/07/31 07:53:41;;;;;;;8.52;2.67;;;;;;;21.92;57.08;100285.56;4868861;29;20245;-60
2023/07/31 07:56:08;;;;;;;8.00;2.60;;;;;;;21.88;56.88;100286.25;4866152;29;20242;-59
2023/07/31 07:58:36;;;;;;;8.40;2.70;;;;;;;21.86;57.23;100272.16;4865961;29;20225;-60
2023/07/31 08:01:04;;;;;;;11.00;3.13;;;;;;;21.70;57.48;100276.28;4866321;29;20326;-59
2023/07/31 08:03:32;;;;;;;7.80;2.90;;;;;;;21.72;57.90;100274.19;4868800;29;20752;-62
2023/07/31 08:06:01;;;;;;;5.77;2.47;;;;;;;21.75;57.75;100274.53;4869993;29;20708;-61
2023/07/31 08:08:29;;;;;;;6.23;2.60;;;;;;;21.85;57.67;100270.50;4868997;29;20218;-62
2023/07/31 08:10:59;;;;;;;7.50;2.50;;;;;;;22.03;57.26;100271.34;4870095;29;20955;-64
2023/07/31 08:13:26;;;;;;;7.37;2.60;;;;;;;22.22;56.61;100274.00;4870030;29;20643;-61
2023/07/31 08:15:54;;;;;;;6.27;2.37;;;;;;;22.30;55.88;100263.69;4871091;29;20678;-64
2023/07/31 08:18:22;;;;;;;6.00;2.75;;;;;;;22.27;56.06;100253.34;4869771;29;20257;-64
2023/07/31 08:20:51;;;;;;;7.03;2.30;;;;;;;22.33;56.46;100244.34;4871803;29;20726;-63
2023/07/31 08:23:18;;;;;;;5.63;2.17;;;;;;;22.41;56.24;100243.19;4869828;29;20227;-64
2023/07/31 08:25:49;;;;;;;6.33;2.43;;;;;;;22.50;55.84;100241.78;4869297;29;20882;-63
2023/07/31 08:28:21;;;;;;;9.50;2.22;;;;;;;22.67;55.37;100237.38;4868929;29;20225;-61
2023/07/31 08:30:50;;;;;;;7.73;2.43;;;;;;;22.77;55.39;100242.22;4871849;29;20221;-62
2023/07/31 08:33:21;;;;;;;5.47;2.38;;;;;;;22.77;55.38;100232.25;4868948;29;20266;-62
2023/07/31 08:35:49;;;;;;;5.07;2.00;;;;;;;22.80;55.21;100236.34;4871596;29;20226;-63
2023/07/31 08:38:17;;;;;;;6.97;2.28;;;;;;;23.05;54.74;100228.81;4870649;29;20233;-61
2023/07/31 08:40:48;;;;;;;6.75;2.45;;;;;;;23.20;55.30;100223.78;4871585;29;20221;-60
2023/07/31 08:43:16;;;;;;;12.10;3.08;;;;;;;23.24;53.98;100226.81;4869673;29;20206;-63
2023/07/31 08:46:01;;;;;;;6.82;2.22;;;;;;;23.53;53.37;100234.00;4870804;29;21447;-63
2023/07/31 08:48:30;;;;;;;8.82;2.75;;;;;;;23.63;53.16;100227.97;4870423;29;20308;-59
2023/07/31 08:50:58;;;;;;;6.43;2.40;;;;;;;23.68;53.26;100219.13;4868626;29;20215;-62
2023/07/31 08:53:26;;;;;;;8.85;3.10;;;;;;;23.60;53.20;100218.44;4869992;29;20310;-62
2023/07/31 08:55:55;;;;;;;6.82;2.72;;;;;;;23.52;51.33;100216.09;4869288;29;20238;-62
2023/07/31 08:58:24;;;;;;;8.93;2.92;;;;;;;23.51;51.28;100214.47;4868911;29;20225;-62
2023/07/31 09:00:54;;;;;;;8.25;3.08;;;;;;;23.56;50.97;100208.34;4869859;29;20740;-62
2023/07/31 09:03:26;;;;;;;7.68;3.15;;;;;;;23.53;51.01;100217.75;4869563;29;20322;-64
2023/07/31 09:05:59;;;;;;;6.45;2.72;;;;;;;23.69;49.99;100220.78;4869032;29;20311;-61
2023/07/31 09:08:31;;;;;;;6.32;2.50;;;;;;;23.69;50.49;100226.19;4870494;29;20210;-63
2023/07/31 09:11:04;;;;;;;5.50;2.42;;;;;;;23.66;50.58;100213.16;4870382;29;20732;-64
2023/07/31 09:13:33;;;;;;;6.65;2.95;;;;;;;23.73;50.21;100200.28;4868254;29;21060;-64
2023/07/31 09:16:01;;;;;;;7.35;2.47;;;;;;;23.72;49.77;100212.19;4868929;29;20297;-63
2023/07/31 09:18:31;;;;;;;6.05;2.53;;;;;;;23.66;49.92;100210.44;4869415;29;20218;-62
2023/07/31 09:21:05;;;;;;;7.55;2.70;;;;;;;23.63;50.35;100206.31;4869402;29;20641;-64
2023/07/31 09:23:49;;;;;;;9.43;3.00;;;;;;;23.65;50.77;100216.91;4867831;29;20677;-64
2023/07/31 09:26:38;;;;;;;5.63;2.67;;;;;;;23.69;51.01;100207.22;4868319;29;20566;-64
2023/07/31 09:29:24;;;;;;;8.02;3.15;;;;;;;23.73;50.69;100219.25;4869850;29;20218;-64
2023/07/31 09:32:18;;;;;;;10.52;2.80;;;;;;;23.73;50.08;100203.81;4869834;29;20206;-63
2023/07/31 09:34:53;;;;;;;8.15;2.90;;;;;;;23.81;49.77;100199.91;4862155;29;21002;-63
2023/07/31 09:37:22;;;;;;;7.60;3.20;;;;;;;23.66;50.09;100208.53;4849443;29;20245;-62
2023/07/31 09:39:58;;;;;;;8.30;3.10;;;;;;;23.59;50.24;100197.84;4868380;29;20300;-63
2023/07/31 09:42:29;;;;;;;6.60;2.70;;;;;;;23.73;50.36;100181.34;4867237;29;20212;-63
2023/07/31 09:45:08;;;;;;;6.88;2.78;;;;;;;23.79;49.81;100181.19;4867851;29;20214;-63
2023/07/31 09:47:48;;;;;;;7.35;2.80;;;;;;;23.70;50.40;100181.81;4867471;29;20210;-62
2023/07/31 09:50:19;;;;;;;8.90;3.22;;;;;;;23.52;50.46;100183.63;4869617;29;20213;-62
2023/07/31 09:52:56;;;;;;;8.30;3.05;;;;;;;23.50;50.77;100172.22;4868654;29;20210;-63
2023/07/31 09:55:34;;;;;;;8.05;3.10;;;;;;;23.69;50.21;100169.34;4868796;29;20217;-62
2023/07/31 09:58:05;;;;;;;6.95;2.80;;;;;;;23.82;49.60;100166.34;4867202;29;21037;-62
2023/07/31 10:03:53;;;;;;;9.13;3.35;;;;;;;23.78;49.98;100173.31;4866249;29;20755;-64
2023/07/31 10:10:21;;;;;;;10.48;3.58;;;;;;;23.57;50.00;100150.44;4811401;29;20235;-63
2023/07/31 10:12:57;;;;;;;11.23;3.38;;;;;;;23.59;50.10;100142.88;4810106;29;20272;-64
2023/07/31 10:15:47;;;;;;;7.18;3.47;;;;;;;23.65;49.41;100141.13;4861049;29;20639;-64
2023/07/31 10:18:23;;;;;;;6.47;2.92;;;;;;;23.57;49.39;100134.22;4867528;29;20222;-64
2023/07/31 10:24:56;;;;;;;7.97;2.85;;;;;;;23.51;49.72;100130.56;4868820;29;20206;-61
2023/07/31 10:27:24;;;;;;;5.93;3.17;;;;;;;23.42;49.88;100131.97;4866822;29;20220;-64
2023/07/31 10:29:57;;;;;;;8.70;2.85;;;;;;;23.48;49.52;100141.84;4866662;29;20297;-62
2023/07/31 10:32:26;;;;;;;8.65;3.53;;;;;;;23.43;49.67;100149.03;4867751;29;20220;-62
2023/07/31 10:34:56;;;;;;;12.95;3.70;;;;;;;23.45;50.05;100158.56;4868833;29;20254;-62
2023/07/31 10:37:30;;;;;;;7.32;3.60;;;;;;;23.49;50.53;100146.22;4867497;29;20238;-62
2023/07/31 10:40:06;;;;;;;8.55;3.22;;;;;;;23.51;50.49;100154.09;4868104;29;20741;-62
2023/07/31 10:42:52;;;;;;;8.00;3.45;;;;;;;23.50;50.66;100158.69;4866184;29;20217;-64
2023/07/31 10:45:39;;;;;;;9.13;3.20;;;;;;;23.43;50.19;100146.34;4869020;29;20232;-65
2023/07/31 10:48:15;;;;;;;8.40;3.40;;;;;;;23.55;50.21;100147.16;4867694;29;20266;-63
2023/07/31 10:50:55;;;;;;;10.48;3.67;;;;;;;23.80;49.37;100138.69;4869605;29;20297;-64
2023/07/31 10:56:47;;;;;;;6.43;3.00;;;;;;;23.80;48.86;100136.00;4855187;29;20245;-64
2023/07/31 10:59:38;;;;;;;7.85;3.22;;;;;;;23.70;49.60;100130.38;4868146;29;20695;-62
2023/07/31 11:02:39;;;;;;;4.38;2.55;;;;;;;23.60;49.51;100134.53;4867439;29;20224;-63
2023/07/31 11:05:46;;;;;;;7.20;2.53;;;;;;;23.48;50.20;100120.22;4867614;29;20230;-63
2023/07/31 11:08:43;;;;;;;;;;;;;;;;;;;;;
2023/07/31 11:12:03;;;;;;;10.38;2.70;;;;;;;23.31;51.34;100135.53;4868019;29;20214;-63
2023/07/31 11:14:32;;;;;;;6.45;3.00;;;;;;;23.26;51.39;100136.25;4868290;29;20339;-63
2023/07/31 11:17:10;;;;;;;7.32;2.70;;;;;;;23.24;50.94;100132.16;4868162;29;20600;-63
2023/07/31 11:19:39;;;;;;;7.22;2.97;;;;;;;23.22;52.50;100120.72;4869248;29;20265;-64
2023/07/31 11:22:09;;;;;;;5.88;2.42;;;;;;;23.18;54.36;100130.41;4866983;29;20273;-65
2023/07/31 11:27:53;;;;;;;8.35;2.67;;;;;;;23.13;53.92;100128.41;4866161;29;20215;-62
2023/07/31 11:30:41;;;;;;;8.68;3.25;;;;;;;23.07;54.25;100128.53;4827436;29;20266;-62
2023/07/31 11:33:25;;;;;;;8.30;3.22;;;;;;;23.08;53.02;100124.78;4865790;29;20300;-62
2023/07/31 11:36:15;;;;;;;;;;;;;;;;;;;;;
2023/07/31 11:38:54;;;;;;;8.05;3.15;;;;;;;23.10;51.15;100117.25;4868317;29;20226;-62
2023/07/31 11:41:24;;;;;;;5.93;3.05;;;;;;;23.13;51.41;100114.88;4872563;29;20202;-65
2023/07/31 11:44:01;;;;;;;8.63;2.72;;;;;;;23.20;51.00;100091.25;4871334;29;20217;-62
2023/07/31 11:46:51;;;;;;;7.38;2.80;;;;;;;23.17;51.69;100091.72;4873475;29;20230;-62
2023/07/31 11:49:19;;;;;;;9.55;2.90;;;;;;;23.32;51.08;100084.97;4869242;29;20203;-62
2023/07/31 11:51:53;;;;;;;7.97;3.05;;;;;;;23.37;51.16;100077.78;4873164;29;20673;-62
2023/07/31 11:54:21;;;;;;;6.65;2.67;;;;;;;23.44;51.01;100075.75;4871667;29;20245;-64
2023/07/31 11:59:41;;;;;;;6.30;2.83;;;;;;;23.60;50.17;100075.00;4870449;29;20249;-63
2023/07/31 12:02:27;;;;;;;7.15;2.72;;;;;;;23.59;50.25;100076.06;4872934;29;20750;-65
2023/07/31 12:05:07;;;;;;;6.13;2.72;;;;;;;23.72;50.42;100087.66;4871592;29;20233;-64
2023/07/31 12:07:49;;;;;;;7.72;2.72;;;;;;;23.74;50.15;100085.53;4870765;29;20323;-64
2023/07/31 12:11:03;;;;;;;7.40;3.20;;;;;;;23.77;50.04;100076.91;4868050;29;20210;-62
2023/07/31 12:13:35;;;;;;;5.22;2.63;;;;;;;23.76;50.30;100075.25;4865124;29;20630;-65
2023/07/31 12:16:27;;;;;;;5.95;2.80;;;;;;;23.83;50.65;100078.66;4870552;29;20700;-63
2023/07/31 12:19:02;;;;;;;8.07;2.97;;;;;;;23.86;49.95;100070.84;4871464;29;20371;-64
2023/07/31 12:21:45;;;;;;;7.22;3.17;;;;;;;23.85;50.12;100065.69;4872308;29;20624;-64
2023/07/31 12:24:21;;;;;;;6.55;2.70;;;;;;;23.80;50.20;100066.44;4870083;29;20218;-62
2023/07/31 12:41:27;;;;;;;7.78;3.25;;;;;;;23.59;51.05;100050.88;4812446;29;20211;-63
2023/07/31 12:44:40;;;;;;;6.57;3.00;;;;;;;23.72;50.95;100041.63;4844519;29;20217;-63
2023/07/31 12:47:43;;;;;;;4.72;2.58;;;;;;;23.85;50.52;100033.19;4864430;29;20215;-65
2023/07/31 12:50:14;;;;;;;8.85;3.28;;;;;;;23.94;50.29;100037.94;4855469;29;20503;-63
2023/07/31 12:53:06;;;;;;;5.68;3.00;;;;;;;24.02;50.06;100034.81;4869909;29;20730;-64
2023/07/31 12:56:27;;;;;;;8.93;3.03;;;;;;;24.02;50.06;100034.00;4868665;29;20313;-63
2023/07/31 12:59:19;;;;;;;5.35;2.72;;;;;;;24.00;49.89;100022.63;4842385;29;20234;-63
2023/07/31 13:01:53;;;;;;;7.25;3.00;;;;;;;23.94;50.55;100020.88;4870667;29;20217;-63
2023/07/31 13:05:00;;;;;;;6.97;2.78;;;;;;;24.01;50.43;100026.97;4868370;29;20246;-62
2023/07/31 13:07:38;;;;;;;4.88;3.17;;;;;;;24.00;50.30;100018.03;4866399;29;20217;-63
2023/07/31 13:10:25;;;;;;;6.50;2.70;;;;;;;23.97;50.45;100009.56;4867916;29;20266;-63
2023/07/31 13:13:33;;;;;;;6.30;2.92;;;;;;;24.04;50.00;100010.22;4855754;29;20570;-63
2023/07/31 13:16:07;;;;;;;6.88;3.10;;;;;;;24.01;50.21;100008.03;4868559;29;20246;-63
2023/07/31 13:18:39;;;;;;;10.38;3.00;;;;;;;24.00;50.47;100025.34;4868617;29;20269;-64
2023/07/31 13:21:19;;;;;;;8.32;3.33;;;;;;;23.90;50.50;100025.16;4868299;29;20266;-62
2023/07/31 13:23:59;;;;;;;8.68;2.80;;;;;;;23.90;50.49;100011.63;4870286;29;20286;-63
2023/07/31 13:26:29;;;;;;;8.07;2.83;;;;;;;23.85;50.73;100014.22;4871003;29;21064;-63
2023/07/31 13:29:07;;;;;;;5.82;2.75;;;;;;;23.90;50.92;100015.16;4870551;29;20211;-63
2023/07/31 13:31:50;;;;;;;8.13;3.15;;;;;;;23.94;51.33;100012.75;4871163;29;20270;-63
2023/07/31 13:37:54;;;;;;;5.55;2.20;;;;;;;24.07;51.30;100003.50;4814471;29;20216;-62
2023/07/31 13:44:42;;;;;;;9.60;2.90;;;;;;;24.07;51.55;99998.06;4813832;29;20235;-63
2023/07/31 13:47:16;;;;;;;8.63;3.33;;;;;;;24.00;52.16;100011.78;4811065;29;20223;-63
2023/07/31 13:49:53;;;;;;;6.15;3.03;;;;;;;23.96;52.23;100013.34;4811527;29;20324;-65
2023/07/31 13:52:38;;;;;;;6.10;2.85;;;;;;;;;;4812384;29;20299;-65
2023/07/31 13:55:27;;;;;;;7.65;2.70;;;;;;;23.85;51.91;100016.94;4813142;29;20220;-64
2023/07/31 13:58:25;;;;;;;8.23;2.90;;;;;;;23.85;51.52;100012.34;4810881;29;20250;-63
2023/07/31 14:01:52;;;;;;;7.32;2.90;;;;;;;23.77;51.83;100004.63;4813969;29;20703;-63
2023/07/31 14:04:42;;;;;;;5.18;2.90;;;;;;;23.72;51.58;99995.63;4786095;29;20303;-62
2023/07/31 14:14:25;;;;;;;;;;;;;;;;;;;;;
2023/07/31 14:17:42;;;;;;;8.70;3.20;;;;;;;23.75;51.93;99979.69;4870679;29;20213;-63
2023/07/31 14:20:16;;;;;;;11.32;2.88;;;;;;;23.76;51.96;99985.94;4782061;29;20398;-62
2023/07/31 14:22:53;;;;;;;5.88;2.58;;;;;;;23.77;52.13;99987.56;4871448;29;20582;-63
2023/07/31 14:25:45;;;;;;;8.43;3.05;;;;;;;23.79;52.28;99985.44;4858305;29;20261;-61
2023/07/31 14:28:38;;;;;;;;;;;;;;;;;;;;;
2023/07/31 14:31:28;;;;;;;6.55;2.85;;;;;;;23.77;51.86;99972.16;4864688;29;20263;-63
2023/07/31 14:34:33;;;;;;;7.15;3.50;;;;;;;23.84;51.73;99955.72;4864002;29;20787;-62
2023/07/31 14:37:30;;;;;;;;;;;;;;;;;;;;;
2023/07/31 14:40:52;;;;;;;6.55;3.03;;;;;;;23.82;51.61;99952.47;4828461;29;21016;-67
2023/07/31 14:43:35;;;;;;;4.47;2.50;;;;;;;23.75;51.38;99935.59;4867366;29;20301;-64
2023/07/31 14:46:21;;;;;;;5.60;2.70;;;;;;;23.75;51.50;99935.59;4869050;29;21186;-67
2023/07/31 14:48:50;;;;;;;6.50;2.90;;;;;;;23.72;51.38;99933.38;4868873;29;20202;-66
2023/07/31 14:51:21;;;;;;;5.72;2.63;;;;;;;23.74;51.39;99940.19;4868902;29;20237;-68
2023/07/31 14:56:58;;;;;;;6.38;2.65;;;;;;;23.63;51.44;99939.19;4866932;29;20226;-67
2023/07/31 15:00:02;;;;;;;7.22;2.20;;;;;;;23.62;51.42;99940.25;4867337;29;20256;-67
2023/07/31 15:02:38;;;;;;;8.48;2.47;;;;;;;23.60;51.87;99939.69;4868895;29;20220;-68
2023/07/31 15:05:28;;;;;;;5.13;2.35;;;;;;;23.61;51.52;99935.91;4865446;29;20213;-67
2023/07/31 15:08:12;;;;;;;7.68;2.70;;;;;;;23.62;51.76;99937.56;4869092;29;20209;-67
2023/07/31 15:10:45;;;;;;;6.72;2.80;;;;;;;23.64;51.27;99945.44;4867623;29;20214;-65
2023/07/31 15:13:24;;;;;;;6.63;2.72;;;;;;;23.65;51.14;99962.50;4868420;29;20587;-67
2023/07/31 15:16:16;;;;;;;5.50;2.45;;;;;;;23.69;49.89;99955.50;4873637;29;20209;-67
2023/07/31 15:18:56;;;;;;;5.35;2.28;;;;;;;23.63;50.02;99955.44;4870124;29;20234;-68
2023/07/31 15:21:28;;;;;;;5.63;2.50;;;;;;;23.63;50.29;99952.72;4875030;29;20205;-69
2023/07/31 15:24:27;;;;;;;5.68;2.17;;;;;;;23.67;50.23;99938.69;4873372;29;20704;-67
2023/07/31 15:27:23;;;;;;;7.25;2.38;;;;;;;23.67;50.31;99944.09;4875309;29;20376;-68
2023/07/31 15:30:01;;;;;;;5.65;2.38;;;;;;;23.69;50.51;99941.97;4877369;29;20209;-69
2023/07/31 15:32:32;;;;;;;4.70;2.33;;;;;;;23.68;50.70;99940.31;4876507;29;20675;-68
2023/07/31 15:35:07;;;;;;;7.93;3.00;;;;;;;23.71;50.32;99942.56;4876279;29;20400;-68
2023/07/31 15:37:35;;;;;;;5.68;2.45;;;;;;;23.74;50.52;99944.78;4875718;29;20226;-68
2023/07/31 15:44:22;;;;;;;4.55;2.20;;;;;;;23.74;50.95;99936.66;4867064;29;20225;-68
2023/07/31 15:46:56;;;;;;;4.90;2.60;;;;;;;23.75;51.25;99930.19;4871815;29;20210;-68
2023/07/31 15:49:49;;;;;;;6.70;2.95;;;;;;;23.81;50.95;99916.47;4874059;29;20210;-67
2023/07/31 15:52:43;;;;;;;7.60;2.53;;;;;;;23.84;50.84;99912.41;4873994;29;20298;-66
2023/07/31 15:55:12;;;;;;;6.63;2.80;;;;;;;23.77;51.12;99900.94;4873494;29;20214;-64
2023/07/31 15:57:43;;;;;;;6.38;2.90;;;;;;;23.74;51.11;99912.28;4873754;29;20635;-67
2023/07/31 16:00:42;;;;;;;8.13;3.05;;;;;;;23.72;51.00;99914.41;4873531;29;20313;-64
2023/07/31 16:03:52;;;;;;;;;;;;;;;;;;;;;
2023/07/31 16:06:28;;;;;;;5.20;2.63;;;;;;;23.64;52.01;99929.19;4875144;29;20219;-68
2023/07/31 16:12:04;;;;;;;7.97;3.00;;;;;;;23.59;52.20;99913.69;4870397;29;20224;-67
2023/07/31 16:20:58;;;;;;;5.20;2.88;;;;;;;23.42;55.47;99920.94;4865322;29;20277;-66
2023/07/31 16:27:13;;;;;;;9.38;3.28;;;;;;;23.25;58.72;99906.59;4791635;29;20231;-65
2023/07/31 16:30:02;;;;;;;5.82;2.83;;;;;;;23.12;59.26;99904.19;4821463;29;20298;-65
2023/07/31 16:33:27;;;;;;;6.97;3.10;;;;;;;23.09;61.78;99904.69;4856969;29;20245;-66
2023/07/31 16:36:05;;;;;;;5.50;3.08;;;;;;;22.99;61.59;99894.50;4867800;29;20237;-66
2023/07/31 16:38:58;;;;;;;7.78;3.08;;;;;;;22.92;61.17;99893.84;4867553;29;20752;-65
2023/07/31 16:41:27;;;;;;;7.90;3.45;;;;;;;22.88;63.21;99889.97;4872229;29;20206;-67
2023/07/31 16:44:17;;;;;;;9.77;3.53;;;;;;;22.84;64.52;99878.84;4872176;29;20236;-64
2023/07/31 16:46:45;;;;;;;9.50;3.42;;;;;;;22.80;64.85;99877.66;4871116;29;20770;-64
2023/07/31 16:49:16;;;;;;;10.20;3.50;;;;;;;22.67;66.99;99880.63;4870766;29;20347;-65
2023/07/31 16:51:50;;;;;;;6.75;3.35;;;;;;;22.60;68.73;99885.38;4869786;29;20375;-65
2023/07/31 16:54:18;;;;;;;9.10;3.03;;;;;;;22.59;69.36;99874.81;4870672;29;20210;-65
2023/07/31 16:56:48;;;;;;;7.38;3.67;;;;;;;22.53;70.61;99863.88;4871154;29;20225;-66
2023/07/31 16:59:28;;;;;;;6.82;3.25;;;;;;;22.48;70.55;99860.25;4870329;29;20229;-66
2023/07/31 17:01:59;;;;;;;7.53;3.40;;;;;;;22.42;70.58;99863.94;4870402;29;20206;-66
2023/07/31 17:04:30;;;;;;;11.27;4.43;;;;;;;22.34;71.84;99869.72;4870363;29;20214;-67
2023/07/31 17:07:03;;;;;;;9.48;3.80;;;;;;;22.33;73.26;99871.59;4870516;29;20214;-67
2023/07/31 17:09:44;;;;;;;11.27;3.88;;;;;;;22.32;73.71;99877.22;4869812;29;20325;-67
2023/07/31 17:12:14;;;;;;;8.50;3.83;;;;;;;22.32;73.69;99863.72;4871637;29;20293;-66
2023/07/31 17:14:42;;;;;;;7.45;3.50;;;;;;;22.33;72.77;99865.38;4870569;29;20309;-67
2023/07/31 17:19:54;;;;;;;9.20;3.67;;;;;;;22.31;74.69;99864.78;4869321;29;20238;-67
2023/07/31 17:22:44;;;;;;;8.47;4.00;;;;;;;22.24;73.40;99877.59;4869657;29;20313;-66
2023/07/31 17:25:18;;;;;;;8.57;4.00;;;;;;;22.18;73.88;99876.66;4869444;29;20752;-66
2023/07/31 17:27:46;;;;;;;12.05;4.47;;;;;;;22.17;74.85;99876.91;4872070;29;20619;-68
2023/07/31 17:30:18;;;;;;;10.13;4.47;;;;;;;22.18;75.04;99884.75;4871013;29;20715;-66
2023/07/31 17:32:49;;;;;;;9.38;3.90;;;;;;;22.14;75.57;99876.34;4871606;29;20213;-69
2023/07/31 17:35:18;;;;;;;7.63;4.25;;;;;;;22.15;77.64;99871.75;4871580;29;20210;-66
2023/07/31 17:37:47;;;;;;;8.18;3.97;;;;;;;22.07;78.01;99870.25;4870083;29;20777;-67
2023/07/31 17:40:29;;;;;;;9.00;3.50;;;;;;;22.00;77.61;99864.13;4869278;29;20839;-68
2023/07/31 17:42:57;;;;;;;6.50;3.35;;;;;;;22.02;76.55;99867.41;4869006;29;20221;-67
2023/07/31 17:45:28;;;;;;;6.88;4.20;;;;;;;22.02;74.82;99867.41;4871692;29;20217;-67
2023/07/31 17:47:57;;;;;;;7.97;3.88;;;;;;;22.07;73.94;99851.34;4870694;29;20669;-67
2023/07/31 17:50:25;;;;;;;8.35;3.63;;;;;;;22.00;73.60;99842.53;4869333;29;20214;-67
2023/07/31 17:52:55;;;;;;;6.10;3.13;;;;;;;21.95;72.62;99845.09;4869572;29;20246;-65
2023/07/31 17:55:23;;;;;;;7.93;2.85;;;;;;;21.99;70.88;99850.88;4870380;29;20930;-65
2023/07/31 17:57:51;;;;;;;5.67;3.00;;;;;;;21.92;70.37;99850.97;4871302;29;20218;-65
2023/07/31 18:00:22;;;;;;;5.15;2.92;;;;;;;21.87;69.63;99858.16;4869271;29;20230;-66
2023/07/31 18:02:53;;;;;;;6.60;3.17;;;;;;;21.88;68.92;99839.03;4867623;29;20241;-64
2023/07/31 18:05:28;;;;;;;5.93;2.95;;;;;;;21.84;69.03;99845.13;4867674;29;20669;-67
2023/07/31 18:07:58;;;;;;;5.40;2.80;;;;;;;21.89;68.62;99839.84;4869951;29;20306;-67
2023/07/31 18:10:27;;;;;;;5.75;2.83;;;;;;;21.80;69.37;99844.78;4866734;29;20210;-67
2023/07/31 18:12:57;;;;;;;4.43;2.40;;;;;;;21.76;69.58;99846.28;4869952;29;20210;-66
2023/07/31 18:15:25;;;;;;;5.43;2.40;;;;;;;21.79;70.28;99840.44;4870204;29;20278;-65
2023/07/31 18:17:54;;;;;;;5.68;2.80;;;;;;;21.76;70.16;99840.91;4872457;29;20210;-66
2023/07/31 18:20:24;;;;;;;5.87;2.60;;;;;;;21.75;71.12;99839.25;4870781;29;20246;-67
2023/07/31 18:22:52;;;;;;;5.27;2.70;;;;;;;21.76;71.07;99835.50;4870578;29;20222;-67
2023/07/31 18:25:51;;;;;;;6.60;2.97;;;;;;;21.70;71.94;99836.47;4868004;29;20245;-65
2023/07/31 18:28:19;;;;;;;7.03;2.50;;;;;;;21.67;72.19;99836.91;4870037;29;20224;-66
2023/07/31 18:31:01;;;;;;;6.20;2.80;;;;;;;21.57;73.38;99847.47;4869030;29;20302;-66
2023/07/31 18:33:32;;;;;;;6.77;3.33;;;;;;;21.59;73.73;99837.28;4868749;29;20218;-67
2023/07/31 18:36:06;;;;;;;4.50;2.73;;;;;;;21.58;72.70;99833.75;4867316;29;20266;-65
2023/07/31 18:39:22;;;;;;;6.80;2.80;;;;;;;21.51;73.09;99827.66;4868325;29;20218;-65
2023/07/31 18:41:51;;;;;;;10.23;2.77;;;;;;;21.43;73.26;99828.00;4870279;29;20321;-61